createdAt,value
2022-08-22T00:01:26.541Z,3.53
2022-08-22T00:03:03.717Z,3.30
2022-08-22T00:04:07.955Z,3.67
2022-08-22T00:06:34.990Z,3.30
2022-08-22T00:09:16.042Z,3.50
2022-08-22T00:11:46.830Z,3.42
2022-08-22T00:14:21.054Z,3.58
2022-08-22T00:16:58.559Z,3.08
2022-08-22T00:19:45.642Z,3.20
2022-08-22T00:22:17.642Z,3.30
2022-08-22T00:25:03.202Z,3.35
2022-08-22T00:27:34.089Z,3.63
2022-08-22T00:30:05.632Z,3.30
2022-08-22T00:32:39.308Z,3.00
2022-08-22T00:35:28.163Z,3.22
2022-08-22T00:38:03.823Z,3.60
2022-08-22T00:40:46.619Z,3.20
2022-08-22T00:43:25.737Z,3.30
2022-08-22T00:46:02.882Z,3.27
2022-08-22T00:48:42.566Z,3.05
2022-08-22T00:51:25.009Z,3.05
2022-08-22T00:54:17.627Z,3.20
2022-08-22T00:56:55.491Z,3.30
2022-08-22T00:59:25.711Z,3.10
2022-08-22T01:02:19.105Z,3.30
2022-08-22T01:04:52.219Z,3.30
2022-08-22T01:07:19.241Z,2.88
2022-08-22T01:09:46.792Z,2.90
2022-08-22T01:12:20.422Z,3.03
2022-08-22T01:14:56.542Z,3.10
2022-08-22T01:17:29.799Z,3.08
2022-08-22T01:20:08.922Z,2.92
2022-08-22T01:22:36.005Z,3.28
2022-08-22T01:25:25.929Z,3.00
2022-08-22T01:27:53.343Z,2.90
2022-08-22T01:30:32.242Z,3.03
2022-08-22T01:32:59.283Z,3.13
2022-08-22T01:35:41.607Z,3.25
2022-08-22T01:38:12.711Z,2.90
2022-08-22T01:41:10.405Z,3.13
2022-08-22T01:44:00.131Z,3.13
2022-08-22T01:46:33.762Z,3.25
2022-08-22T01:49:13.160Z,3.58
2022-08-22T01:51:56.803Z,3.03
2022-08-22T01:54:42.883Z,3.28
2022-08-22T01:57:11.173Z,3.53
2022-08-22T01:59:42.398Z,3.10
2022-08-22T02:02:09.767Z,3.47
2022-08-22T02:04:40.718Z,3.23
2022-08-22T02:07:16.984Z,3.08
2022-08-22T02:10:03.089Z,3.30
2022-08-22T02:12:30.174Z,3.08
2022-08-22T02:15:00.016Z,3.40
2022-08-22T02:17:29.451Z,3.70
2022-08-22T02:19:59.564Z,3.33
2022-08-22T02:22:29.394Z,3.40
2022-08-22T02:25:09.750Z,3.30
2022-08-22T02:27:39.930Z,3.10
2022-08-22T02:30:07.106Z,3.80
2022-08-22T02:32:44.100Z,3.35
2022-08-22T02:35:18.914Z,3.45
2022-08-22T02:37:59.897Z,3.60
2022-08-22T02:40:52.632Z,3.80
2022-08-22T02:43:27.335Z,3.40
2022-08-22T02:46:03.794Z,3.95
2022-08-22T02:48:32.491Z,4.03
2022-08-22T02:50:59.526Z,3.55
2022-08-22T02:53:29.715Z,3.03
2022-08-22T02:56:01.616Z,3.33
2022-08-22T02:58:47.712Z,3.25
2022-08-22T03:01:18.317Z,3.55
2022-08-22T03:03:47.095Z,3.20
2022-08-22T03:06:32.643Z,3.42
2022-08-22T03:09:07.191Z,3.37
2022-08-22T03:11:38.308Z,3.47
2022-08-22T03:14:24.190Z,3.03
2022-08-22T03:16:55.910Z,3.40
2022-08-22T03:19:22.933Z,3.50
2022-08-22T03:21:54.489Z,3.10
2022-08-22T03:24:28.399Z,3.25
2022-08-22T03:27:14.255Z,3.40
2022-08-22T03:30:11.183Z,2.97
2022-08-22T03:32:59.338Z,4.00
2022-08-22T03:35:45.108Z,3.00
2022-08-22T03:38:15.380Z,3.05
2022-08-22T03:40:53.810Z,3.42
2022-08-22T03:43:39.949Z,3.40
2022-08-22T03:46:19.030Z,3.40
2022-08-22T03:49:06.271Z,3.33
2022-08-22T03:51:39.350Z,3.15
2022-08-22T03:54:09.304Z,3.10
2022-08-22T03:56:39.093Z,3.03
2022-08-22T03:59:15.351Z,3.80
2022-08-22T04:01:48.649Z,2.83
2022-08-22T04:04:15.686Z,3.22
2022-08-22T04:07:01.607Z,3.28
2022-08-22T04:09:37.865Z,3.50
2022-08-22T04:12:13.535Z,3.50
2022-08-22T04:14:47.488Z,3.17
2022-08-22T04:17:20.443Z,2.92
2022-08-22T04:20:09.295Z,2.90
2022-08-22T04:22:51.754Z,3.45
2022-08-22T04:25:18.839Z,3.25
2022-08-22T04:28:10.905Z,3.10
2022-08-22T04:30:52.866Z,3.63
2022-08-22T04:33:35.279Z,3.40
2022-08-22T04:36:02.409Z,3.20
2022-08-22T04:38:34.550Z,3.22
2022-08-22T04:41:08.810Z,3.33
2022-08-22T04:43:47.825Z,3.45
2022-08-22T04:46:37.214Z,3.45
2022-08-22T04:49:22.883Z,3.45
2022-08-22T04:51:58.182Z,3.70
2022-08-22T04:54:25.366Z,3.50
2022-08-22T04:57:01.128Z,3.47
2022-08-22T04:59:29.947Z,3.70
2022-08-22T05:02:06.204Z,3.30
2022-08-22T05:04:36.473Z,4.20
2022-08-22T05:07:09.450Z,3.17
2022-08-22T05:09:39.438Z,3.40
2022-08-22T05:12:09.335Z,3.80
2022-08-22T05:14:58.258Z,3.25
2022-08-22T05:17:27.794Z,3.30
2022-08-22T05:19:56.670Z,3.50
2022-08-22T05:22:36.485Z,3.50
2022-08-22T05:25:06.667Z,4.25
2022-08-22T05:27:40.283Z,3.35
2022-08-22T05:30:09.766Z,3.38
2022-08-22T05:32:55.616Z,3.47
2022-08-22T05:35:28.161Z,4.05
2022-08-22T05:37:56.546Z,3.80
2022-08-22T05:40:27.843Z,3.67
2022-08-22T05:42:56.247Z,3.30
2022-08-22T05:45:23.581Z,3.50
2022-08-22T05:47:53.194Z,3.70
2022-08-22T05:50:32.273Z,4.10
2022-08-22T05:53:06.247Z,3.55
2022-08-22T05:55:39.354Z,3.70
2022-08-22T05:58:20.159Z,3.83
2022-08-22T06:00:49.547Z,3.83
2022-08-22T06:03:16.627Z,3.83
2022-08-22T06:05:46.130Z,3.60
2022-08-22T06:08:23.325Z,4.00
2022-08-22T06:10:59.105Z,3.63
2022-08-22T06:13:41.461Z,3.95
2022-08-22T06:16:16.786Z,4.05
2022-08-22T06:18:44.809Z,3.72
2022-08-22T06:21:23.130Z,3.88
2022-08-22T06:23:58.469Z,3.90
2022-08-22T06:26:28.341Z,3.83
2022-08-22T06:28:56.699Z,3.90
2022-08-22T06:31:27.206Z,4.30
2022-08-22T06:34:03.474Z,3.63
2022-08-22T06:36:32.402Z,3.93
2022-08-22T06:39:05.881Z,3.63
2022-08-22T06:41:35.425Z,4.18
2022-08-22T06:44:03.439Z,3.95
2022-08-22T06:46:31.826Z,4.15
2022-08-22T06:49:00.284Z,4.03
2022-08-22T06:51:28.577Z,4.18
2022-08-22T06:53:57.754Z,4.47
2022-08-22T06:56:26.109Z,4.05
2022-08-22T06:58:55.252Z,3.78
2022-08-22T07:01:24.374Z,4.03
2022-08-22T07:03:52.704Z,4.25
2022-08-22T07:06:23.531Z,4.50
2022-08-22T07:08:53.753Z,4.78
2022-08-22T07:11:28.410Z,4.40
2022-08-22T07:13:58.210Z,4.70
2022-08-22T07:16:33.362Z,4.03
2022-08-22T07:19:01.135Z,4.60
2022-08-22T07:21:29.923Z,4.53
2022-08-22T07:24:01.251Z,4.53
2022-08-22T07:26:31.164Z,4.60
2022-08-22T07:29:01.447Z,4.53
2022-08-22T07:31:36.967Z,4.03
2022-08-22T07:34:04.838Z,4.60
2022-08-22T07:36:55.621Z,4.35
2022-08-22T07:39:28.606Z,4.23
2022-08-22T07:42:07.530Z,4.18
2022-08-22T07:44:46.811Z,4.30
2022-08-22T07:47:16.305Z,4.50
2022-08-22T07:49:51.803Z,4.07
2022-08-22T07:52:19.313Z,4.63
2022-08-22T07:54:57.900Z,4.38
2022-08-22T07:57:28.954Z,4.13
2022-08-22T07:59:57.105Z,4.35
2022-08-22T08:02:25.031Z,4.45
2022-08-22T08:04:53.696Z,4.50
2022-08-22T08:07:22.550Z,4.00
2022-08-22T08:09:55.453Z,4.15
2022-08-22T08:12:27.013Z,4.22
2022-08-22T08:14:55.673Z,4.38
2022-08-22T08:17:26.879Z,3.87
2022-08-22T08:19:56.854Z,4.05
2022-08-22T08:22:25.180Z,4.25
2022-08-22T08:24:53.826Z,4.32
2022-08-22T08:27:41.795Z,4.63
2022-08-22T08:30:15.615Z,4.40
2022-08-22T08:32:43.879Z,3.80
2022-08-22T08:35:25.754Z,4.00
2022-08-22T08:37:57.341Z,3.90
2022-08-22T08:40:47.507Z,4.40
2022-08-22T08:43:36.406Z,4.07
2022-08-22T08:46:03.497Z,4.05
2022-08-22T08:48:46.851Z,4.03
2022-08-22T08:51:34.166Z,4.18
2022-08-22T08:54:10.638Z,4.50
2022-08-22T08:56:56.103Z,3.80
2022-08-22T08:59:44.856Z,3.90
2022-08-22T09:02:23.671Z,4.03
2022-08-22T09:04:50.869Z,4.43
2022-08-22T09:07:26.725Z,4.70
2022-08-22T09:10:07.259Z,4.10
2022-08-22T09:12:37.262Z,4.30
2022-08-22T09:15:37.393Z,3.97
2022-08-22T09:18:18.166Z,4.22
2022-08-22T09:20:51.462Z,4.53
2022-08-22T09:23:30.609Z,4.50
2022-08-22T09:26:14.398Z,4.10
2022-08-22T09:28:48.334Z,4.63
2022-08-22T09:31:44.914Z,4.60
2022-08-22T09:34:30.605Z,4.40
2022-08-22T09:36:58.218Z,4.60
2022-08-22T09:39:28.124Z,4.03
2022-08-22T09:42:08.109Z,4.68
2022-08-22T09:44:39.788Z,4.50
2022-08-22T09:47:13.167Z,5.03
2022-08-22T09:49:53.137Z,5.63
2022-08-22T09:52:34.998Z,4.68
2022-08-22T09:55:16.073Z,4.28
2022-08-22T09:58:02.886Z,4.50
2022-08-22T10:00:55.289Z,4.13
2022-08-22T10:03:27.803Z,4.03
2022-08-22T10:06:09.115Z,4.13
2022-08-22T10:08:36.344Z,4.60
2022-08-22T10:11:24.291Z,3.88
2022-08-22T10:14:08.767Z,3.88
2022-08-22T10:16:48.484Z,3.70
2022-08-22T10:19:23.887Z,4.15
2022-08-22T10:22:11.952Z,4.20
2022-08-22T10:24:58.570Z,4.20
2022-08-22T10:27:44.831Z,3.53
2022-08-22T10:30:13.202Z,4.20
2022-08-22T10:32:40.512Z,3.53
2022-08-22T10:35:16.827Z,3.58
2022-08-22T10:37:50.258Z,3.22
2022-08-22T10:40:34.790Z,3.47
2022-08-22T10:43:11.970Z,2.63
2022-08-22T10:45:41.609Z,3.15
2022-08-22T10:48:09.868Z,2.83
2022-08-22T10:50:40.041Z,3.35
2022-08-22T10:53:29.788Z,3.40
2022-08-22T10:56:09.246Z,3.10
2022-08-22T10:58:39.805Z,3.30
2022-08-22T11:01:38.314Z,3.65
2022-08-22T11:04:12.057Z,3.50
2022-08-22T11:06:52.092Z,3.08
2022-08-22T11:09:37.082Z,3.30
2022-08-22T11:12:23.376Z,2.75
2022-08-22T11:14:53.747Z,3.38
2022-08-22T11:17:44.748Z,3.20
2022-08-22T11:20:38.186Z,3.22
2022-08-22T11:23:22.034Z,2.77
2022-08-22T11:25:53.763Z,3.55
2022-08-22T11:28:23.928Z,3.58
2022-08-22T11:31:11.526Z,4.82
2022-08-22T11:33:46.981Z,3.30
2022-08-22T11:36:26.162Z,3.40
2022-08-22T11:39:01.173Z,3.13
2022-08-22T11:41:35.589Z,3.25
2022-08-22T11:44:06.207Z,3.20
2022-08-22T11:46:36.033Z,3.13
2022-08-22T11:49:25.518Z,3.23
2022-08-22T11:52:11.221Z,2.75
2022-08-22T11:54:56.857Z,3.35
2022-08-22T11:57:44.292Z,3.35
2022-08-22T12:00:23.038Z,3.20
2022-08-22T12:03:12.776Z,3.10
2022-08-22T12:05:45.173Z,3.20
2022-08-22T12:08:21.013Z,3.42
2022-08-22T12:10:53.043Z,3.10
2022-08-22T12:13:40.698Z,3.42
2022-08-22T12:16:23.859Z,3.43
2022-08-22T12:18:57.718Z,3.97
2022-08-22T12:21:27.868Z,3.40
2022-08-22T12:24:34.242Z,3.42
2022-08-22T12:27:10.726Z,3.30
2022-08-22T12:30:04.439Z,3.13
2022-08-22T12:32:54.419Z,2.97
2022-08-22T12:35:47.886Z,3.85
2022-08-22T12:38:31.285Z,3.00
2022-08-22T12:41:28.124Z,3.22
2022-08-22T12:44:05.766Z,3.10
2022-08-22T12:46:38.074Z,3.35
2022-08-22T12:49:30.227Z,3.50
2022-08-22T12:52:04.616Z,3.42
2022-08-22T12:54:31.805Z,3.28
2022-08-22T12:57:05.069Z,3.33
2022-08-22T12:59:52.534Z,3.60
2022-08-22T13:02:24.290Z,3.15
2022-08-22T13:04:54.354Z,3.28
2022-08-22T13:07:22.623Z,3.20
2022-08-22T13:09:57.629Z,3.53
2022-08-22T13:12:46.358Z,3.00
2022-08-22T13:15:31.990Z,3.15
2022-08-22T13:18:19.186Z,2.97
2022-08-22T13:20:51.482Z,3.47
2022-08-22T13:23:22.954Z,3.17
2022-08-22T13:26:08.647Z,3.30
2022-08-22T13:29:24.153Z,3.35
2022-08-22T13:31:44.970Z,2.80
2022-08-22T13:34:27.810Z,3.15
2022-08-22T13:36:58.210Z,3.03
2022-08-22T13:39:32.552Z,2.75
2022-08-22T13:42:00.779Z,3.35
2022-08-22T13:44:29.293Z,2.80
2022-08-22T13:47:14.247Z,3.10
2022-08-22T13:49:44.530Z,2.83
2022-08-22T13:52:30.357Z,2.90
2022-08-22T13:55:00.724Z,3.78
2022-08-22T13:57:46.146Z,3.97
2022-08-22T14:00:29.281Z,3.30
2022-08-22T14:03:05.550Z,3.43
2022-08-22T14:05:37.122Z,3.30
2022-08-22T14:08:05.707Z,3.38
2022-08-22T14:10:44.064Z,3.30
2022-08-22T14:13:12.522Z,3.33
2022-08-22T14:15:45.268Z,2.93
2022-08-22T14:18:18.743Z,3.05
2022-08-22T14:20:47.653Z,3.20
2022-08-22T14:23:18.913Z,3.60
2022-08-22T14:25:51.136Z,2.97
2022-08-22T14:28:27.595Z,3.03
2022-08-22T14:31:01.213Z,3.13
2022-08-22T14:33:35.086Z,3.30
2022-08-22T14:36:04.018Z,2.85
2022-08-22T14:38:40.116Z,2.80
2022-08-22T14:41:56.348Z,3.10
2022-08-22T14:44:28.945Z,2.97
2022-08-22T14:46:58.158Z,2.65
2022-08-22T14:49:31.519Z,2.67
2022-08-22T14:51:59.210Z,3.05
2022-08-22T14:54:29.048Z,3.13
2022-08-22T14:56:57.258Z,3.22
2022-08-22T14:59:30.266Z,3.13
2022-08-22T15:01:57.313Z,3.00
2022-08-22T15:04:34.542Z,3.13
2022-08-22T15:07:04.958Z,2.90
2022-08-22T15:09:43.984Z,3.20
2022-08-22T15:12:33.229Z,3.25
2022-08-22T15:15:02.039Z,2.90
2022-08-22T15:17:50.801Z,3.33
2022-08-22T15:20:27.747Z,3.10
2022-08-22T15:22:56.319Z,2.50
2022-08-22T15:25:26.065Z,3.47
2022-08-22T15:28:14.164Z,3.20
2022-08-22T15:30:44.150Z,3.05
2022-08-22T15:33:11.913Z,2.80
2022-08-22T15:35:39.507Z,3.28
2022-08-22T15:38:08.813Z,3.15
2022-08-22T15:40:43.490Z,2.90
2022-08-22T15:43:21.736Z,2.92
2022-08-22T15:45:49.610Z,3.10
2022-08-22T15:48:33.955Z,2.85
2022-08-22T15:51:04.654Z,3.13
2022-08-22T15:53:45.503Z,2.55
2022-08-22T15:56:12.530Z,2.97
2022-08-22T15:58:48.774Z,2.80
2022-08-22T16:01:19.795Z,2.88
2022-08-22T16:04:01.994Z,2.90
2022-08-22T16:06:42.488Z,3.13
2022-08-22T16:09:10.284Z,3.35
2022-08-22T16:11:40.467Z,2.73
2022-08-22T16:14:21.467Z,2.65
2022-08-22T16:16:53.262Z,2.80
2022-08-22T16:19:24.631Z,2.60
2022-08-22T16:21:51.663Z,3.05
2022-08-22T16:24:18.770Z,2.83
2022-08-22T16:26:46.730Z,2.95
2022-08-22T16:29:18.197Z,2.95
2022-08-22T16:31:45.668Z,2.63
2022-08-22T16:34:19.016Z,2.58
2022-08-22T16:37:04.299Z,2.43
2022-08-22T16:39:33.755Z,2.78
2022-08-22T16:42:15.998Z,2.60
2022-08-22T16:44:47.196Z,2.60
2022-08-22T16:47:17.486Z,2.65
2022-08-22T16:49:44.670Z,3.10
2022-08-22T16:52:24.183Z,2.85
2022-08-22T16:54:55.597Z,3.00
2022-08-22T16:57:54.454Z,7.40
2022-08-22T17:00:39.201Z,3.03
2022-08-22T17:03:18.175Z,2.90
2022-08-22T17:05:54.810Z,2.90
2022-08-22T17:08:27.813Z,2.80
2022-08-22T17:11:06.926Z,2.70
2022-08-22T17:13:41.043Z,3.28
2022-08-22T17:16:09.782Z,3.13
2022-08-22T17:18:40.194Z,2.90
2022-08-22T17:21:15.635Z,3.10
2022-08-22T17:23:45.979Z,3.10
2022-08-22T17:26:22.024Z,3.17
2022-08-22T17:29:07.874Z,2.77
2022-08-22T17:31:53.006Z,2.50
2022-08-22T17:34:33.320Z,3.10
2022-08-22T17:37:22.514Z,2.47
2022-08-22T17:39:53.013Z,2.60
2022-08-22T17:42:28.934Z,2.50
2022-08-22T17:45:08.124Z,2.90
2022-08-22T17:47:42.579Z,2.85
2022-08-22T17:50:48.277Z,2.65
2022-08-22T17:53:38.953Z,3.40
2022-08-22T17:56:25.313Z,3.10
2022-08-22T17:59:20.950Z,2.78
2022-08-22T18:01:55.951Z,3.00
2022-08-22T18:04:29.145Z,2.70
2022-08-22T18:07:00.056Z,3.20
2022-08-22T18:09:34.181Z,3.13
2022-08-22T18:12:03.822Z,2.97
2022-08-22T18:14:33.743Z,3.13
2022-08-22T18:17:01.137Z,2.55
2022-08-22T18:19:40.761Z,2.78
2022-08-22T18:22:10.847Z,2.70
2022-08-22T18:24:53.366Z,3.17
2022-08-22T18:27:34.859Z,2.75
2022-08-22T18:30:06.950Z,2.90
2022-08-22T18:32:36.988Z,2.78
2022-08-22T18:35:08.046Z,2.87
2022-08-22T18:37:35.541Z,3.42
2022-08-22T18:40:06.204Z,3.08
2022-08-22T18:42:54.836Z,2.97
2022-08-22T18:45:43.800Z,3.08
2022-08-22T18:48:19.931Z,3.00
2022-08-22T18:50:47.642Z,3.20
2022-08-22T18:53:33.528Z,3.05
2022-08-22T18:56:09.954Z,3.50
2022-08-22T18:59:05.311Z,3.03
2022-08-22T19:01:52.362Z,2.97
2022-08-22T19:04:29.864Z,3.13
2022-08-22T19:07:05.364Z,3.15
2022-08-22T19:09:51.580Z,3.60
2022-08-22T19:12:37.641Z,2.97
2022-08-22T19:15:09.123Z,3.33
2022-08-22T19:17:58.692Z,3.42
2022-08-22T19:20:47.069Z,3.45
2022-08-22T19:23:32.526Z,3.20
2022-08-22T19:26:18.361Z,3.63
2022-08-22T19:28:45.867Z,3.30
2022-08-22T19:31:42.667Z,3.20
2022-08-22T19:34:15.442Z,3.50
2022-08-22T19:36:43.465Z,3.50
2022-08-22T19:39:12.892Z,3.20
2022-08-22T19:41:57.969Z,3.33
2022-08-22T19:44:28.397Z,3.67
2022-08-22T19:46:58.730Z,3.65
2022-08-22T19:49:48.936Z,3.80
2022-08-22T19:52:17.835Z,3.33
2022-08-22T19:54:54.353Z,7.13
2022-08-22T19:57:41.706Z,4.07
2022-08-22T20:00:09.256Z,3.90
2022-08-22T20:02:49.391Z,3.65
2022-08-22T20:05:27.523Z,3.50
2022-08-22T20:08:03.607Z,3.70
2022-08-22T20:10:43.441Z,4.00
2022-08-22T20:13:18.563Z,3.92
2022-08-22T20:16:04.304Z,3.60
2022-08-22T20:19:00.216Z,3.85
2022-08-22T20:21:51.178Z,3.50
2022-08-22T20:24:39.592Z,3.78
2022-08-22T20:27:14.352Z,3.80
2022-08-22T20:29:49.107Z,3.60
2022-08-22T20:32:17.939Z,4.05
2022-08-22T20:34:46.034Z,4.00
2022-08-22T20:37:32.333Z,4.00
2022-08-22T20:40:25.877Z,3.90
2022-08-22T20:43:10.275Z,4.15
2022-08-22T20:45:41.530Z,3.90
2022-08-22T20:48:11.249Z,4.47
2022-08-22T20:50:38.923Z,4.28
2022-08-22T20:53:16.094Z,4.28
2022-08-22T20:55:53.119Z,4.22
2022-08-22T20:58:21.827Z,4.30
2022-08-22T21:00:52.055Z,4.10
2022-08-22T21:03:35.953Z,4.20
2022-08-22T21:06:14.744Z,4.47
2022-08-22T21:08:43.284Z,4.10
2022-08-22T21:11:29.602Z,4.43
2022-08-22T21:13:56.675Z,4.20
2022-08-22T21:16:34.007Z,4.50
2022-08-22T21:19:04.254Z,4.03
2022-08-22T21:21:35.640Z,4.30
2022-08-22T21:24:07.837Z,4.55
2022-08-22T21:26:37.208Z,4.03
2022-08-22T21:29:04.237Z,4.40
2022-08-22T21:31:36.827Z,4.10
2022-08-22T21:34:06.070Z,4.45
2022-08-22T21:36:37.970Z,4.97
2022-08-22T21:39:07.077Z,4.67
2022-08-22T21:41:44.915Z,5.00
2022-08-22T21:44:27.126Z,4.15
2022-08-22T21:46:54.781Z,4.47
2022-08-22T21:49:27.633Z,4.40
2022-08-22T21:51:55.502Z,4.63
2022-08-22T21:54:26.223Z,4.80
2022-08-22T21:56:54.586Z,4.20
2022-08-22T21:59:24.829Z,4.55
2022-08-22T22:01:52.294Z,4.63
2022-08-22T22:04:19.370Z,5.03
2022-08-22T22:06:46.493Z,4.40
2022-08-22T22:09:15.281Z,4.75
2022-08-22T22:11:42.442Z,4.63
2022-08-22T22:14:09.634Z,4.93
2022-08-22T22:16:38.459Z,4.60
2022-08-22T22:19:08.370Z,4.85
2022-08-22T22:21:36.442Z,4.95
2022-08-22T22:24:04.408Z,5.10
2022-08-22T22:26:32.513Z,5.03
2022-08-22T22:29:00.647Z,4.73
2022-08-22T22:31:28.637Z,4.75
2022-08-22T22:33:56.567Z,5.20
2022-08-22T22:36:26.187Z,5.10
2022-08-22T22:38:53.945Z,5.20
2022-08-22T22:41:25.248Z,4.93
2022-08-22T22:43:53.790Z,5.30
2022-08-22T22:46:21.857Z,5.20
2022-08-22T22:48:49.107Z,5.22
2022-08-22T22:51:16.657Z,5.07
2022-08-22T22:53:45.176Z,4.90
2022-08-22T22:56:18.148Z,5.20
2022-08-22T22:58:48.598Z,5.10
2022-08-22T23:01:22.032Z,5.05
2022-08-22T23:03:50.126Z,5.68
2022-08-22T23:06:19.266Z,5.20
2022-08-22T23:08:47.530Z,5.35
2022-08-22T23:11:22.883Z,5.25
2022-08-22T23:13:51.243Z,5.18
2022-08-22T23:16:20.617Z,5.65
2022-08-22T23:18:48.676Z,5.17
2022-08-22T23:21:19.114Z,5.13
2022-08-22T23:23:47.057Z,5.45
2022-08-22T23:26:14.507Z,5.43
2022-08-22T23:28:41.950Z,5.43
2022-08-22T23:31:39.043Z,5.00
2022-08-22T23:34:16.773Z,5.10
2022-08-22T23:36:45.533Z,5.18
2022-08-22T23:39:13.905Z,4.93
2022-08-22T23:41:42.181Z,5.13
2022-08-22T23:44:13.702Z,5.07
2022-08-22T23:46:41.992Z,5.00
2022-08-22T23:49:09.763Z,5.30
2022-08-22T23:51:37.467Z,4.97
2022-08-22T23:54:05.404Z,5.13
2022-08-22T23:56:35.258Z,4.90
2022-08-22T23:59:05.548Z,5.22
